Navin Eagle — V7LW4 — position and weather

sailwx.info

Track history (hours):
 
Tides and Currents Weather Stations Pressure Air Temp Water Temp Dewpoint Dewpoint Depression Visibility Wind Speed Wind Dir Waves Ship Positions

Navin Eagle

Last reported at 2017-Dec-09 23:25 UTC. Time now 2017-Dec-12 06:32 UTC.
Position N 37°01' E 023°16'.

Length 114 m; draft 6.7 m.

Type: Cargo ship. MMSI: 538090486.

Date/timePositionNaut miles runAvg speedWind from/ knotsBaromVisibWave heightAir tempDewpointWater temp
2017-Dec-09 23:25N 37°01' E 023°16'3 7.4
2017-Dec-09 22:57N 37°03' E 023°18'7 7.1
2017-Dec-09 22:02N 37°08' E 023°24'1 7.4
2017-Dec-09 21:50N 37°09' E 023°26'2 7.8
2017-Dec-09 21:30N 37°11' E 023°28'11 8.2
2017-Dec-09 20:08N 37°19' E 023°37'1 8.3
2017-Dec-09 20:00N 37°20' E 023°38'12 8.3
2017-Dec-09 18:31N 37°32' E 023°42'0 9.0
2017-Dec-09 18:30N 37°32' E 023°42'5 9.2
2017-Dec-09 18:00N 37°36' E 023°42'5 9.1
2017-Dec-09 17:30N 37°41' E 023°42'5 9.4
2017-Dec-09 17:00N 37°45' E 023°39'5 9.3
2017-Dec-09 16:30N 37°49' E 023°37'4 9.0
2017-Dec-09 16:00N 37°54' E 023°35'2 3.3
2017-Dec-09 15:28N 37°55' E 023°34'0 0.0
2017-Dec-09 14:58N 37°55' E 023°34'0 0.0
2017-Dec-09 14:28N 37°55' E 023°34'0 0.0
2017-Dec-09 13:58N 37°55' E 023°34'0 0.0
2017-Dec-09 13:28N 37°55' E 023°34'0 0.0
2017-Dec-09 12:58N 37°55' E 023°34'0 0.0
2017-Dec-09 12:28N 37°55' E 023°34'0 0.1
2017-Dec-09 11:58N 37°55' E 023°34'0 0.0
2017-Dec-09 11:28N 37°55' E 023°34'0 0.0
2017-Dec-09 11:00N 37°55' E 023°34'1 2.7
2017-Dec-09 10:30N 37°54' E 023°35'5 9.5
2017-Dec-09 10:00N 37°51' E 023°39'510.0
2017-Dec-09 09:30N 37°46' E 023°42'5 9.8
2017-Dec-09 09:00N 37°42' E 023°45'5 9.9
2017-Dec-09 08:30N 37°38' E 023°49'8 9.4
2017-Dec-09 07:41N 37°36' E 023°58'2 9.7
2017-Dec-09 07:26N 37°36' E 024°01'  
Track history (hours):
 
Tides and Currents Weather Stations Pressure Air Temp Water Temp Dewpoint Dewpoint Depression Visibility Wind Speed Wind Dir Waves Ship Positions

Navin Eagle

Last reported at 2017-Dec-09 23:25 UTC. Time now 2017-Dec-12 06:32 UTC.
Position N 37°01' E 023°16'.

Length 114 m; draft 6.7 m.

Type: Cargo ship. MMSI: 538090486.

Date/timePositionNaut miles runAvg speedWind from/ knotsBaromVisibWave heightAir tempDewpointWater temp
2017-Dec-09 23:25N 37°01' E 023°16'3 7.4
2017-Dec-09 22:57N 37°03' E 023°18'7 7.1
2017-Dec-09 22:02N 37°08' E 023°24'1 7.4
2017-Dec-09 21:50N 37°09' E 023°26'2 7.8
2017-Dec-09 21:30N 37°11' E 023°28'11 8.2
2017-Dec-09 20:08N 37°19' E 023°37'1 8.3
2017-Dec-09 20:00N 37°20' E 023°38'12 8.3
2017-Dec-09 18:31N 37°32' E 023°42'0 9.0
2017-Dec-09 18:30N 37°32' E 023°42'5 9.2
2017-Dec-09 18:00N 37°36' E 023°42'5 9.1
2017-Dec-09 17:30N 37°41' E 023°42'5 9.4
2017-Dec-09 17:00N 37°45' E 023°39'5 9.3
2017-Dec-09 16:30N 37°49' E 023°37'4 9.0
2017-Dec-09 16:00N 37°54' E 023°35'2 3.3
2017-Dec-09 15:28N 37°55' E 023°34'0 0.0
2017-Dec-09 14:58N 37°55' E 023°34'0 0.0
2017-Dec-09 14:28N 37°55' E 023°34'0 0.0
2017-Dec-09 13:58N 37°55' E 023°34'0 0.0
2017-Dec-09 13:28N 37°55' E 023°34'0 0.0
2017-Dec-09 12:58N 37°55' E 023°34'0 0.0
2017-Dec-09 12:28N 37°55' E 023°34'0 0.1
2017-Dec-09 11:58N 37°55' E 023°34'0 0.0
2017-Dec-09 11:28N 37°55' E 023°34'0 0.0
2017-Dec-09 11:00N 37°55' E 023°34'1 2.7
2017-Dec-09 10:30N 37°54' E 023°35'5 9.5
2017-Dec-09 10:00N 37°51' E 023°39'510.0
2017-Dec-09 09:30N 37°46' E 023°42'5 9.8
2017-Dec-09 09:00N 37°42' E 023°45'5 9.9
2017-Dec-09 08:30N 37°38' E 023°49'8 9.4
2017-Dec-09 07:41N 37°36' E 023°58'2 9.7
2017-Dec-09 07:26N 37°36' E 024°01'  

Dump ship's entire track history